Portada
METAR-TAF:

METAR-TAF

Aeroports :

Fuzhou, Xina

latitud: 26-05N, longitud: 119-17E, altitud: 85 m

Observació

L'informe es va fer fa 50 minuts, a les 10:00 UTC
Vent 6 kt del Nord
Temperatura 17°C
Humitat 68%
Pressió 1020 hPa
Visibilitat 10 km o més
sense núvols per sota de 1500 mi sense presència de cumulonimbus.

METAR: ZSFZ 151000Z 01003MPS CAVOK 17/11 Q1020 NOSIG

Hora: 18:50 (10:50 UTC)

Pronòstic

L'informe es va fer fa 7 hores i 45 minuts, a les 03:05 UTC
Pronòstic vàlid del 15 a les 06 UTC al 16 a les 06 UTC
Vent 8 kt del Nord/Nord-Est
Visibilitat: 5000 m
Cel ennuvolat a una alçada de 2000 ft
boirina

TAF: ZSFZ 150305Z 1506/1606 03004MPS 5000 BR BKN020 TX21/1506Z TN15/1521Z

Observacions i pronòstics meteorològics de més de 4000 aeroports (METAR i TAF).

Les estacions disponibles són els punts grocs i vermells al mapa.

Posi el ratolí al punt desitjat per veure el nom de l'estació.

Feu clic per veure les observacions i els pronòstics meteorològics.

Per canviar el mapa: feu clic els botons verds amb una creu de color negre per apropar; al botó verd amb un guió per allunyar la imatge; o en les fletxes verdes per a mapes adjacents.


METAR-TAF: